createdAt,value
2023-03-07T00:00:57.844Z,14.60
2023-03-07T00:03:24.282Z,13.53
2023-03-07T00:05:59.731Z,15.40
2023-03-07T00:08:26.188Z,13.50
2023-03-07T00:10:52.584Z,13.97
2023-03-07T00:13:19.054Z,13.93
2023-03-07T00:15:45.596Z,13.30
2023-03-07T00:18:12.077Z,12.43
2023-03-07T00:20:38.589Z,12.90
2023-03-07T00:23:05.001Z,12.00
2023-03-07T00:25:31.448Z,12.33
2023-03-07T00:27:57.878Z,11.73
2023-03-07T00:30:24.326Z,12.13
2023-03-07T00:32:50.762Z,12.53
2023-03-07T00:35:17.234Z,12.60
2023-03-07T00:37:43.690Z,11.87
2023-03-07T00:40:10.556Z,12.03
2023-03-07T00:42:37.047Z,12.40
2023-03-07T00:45:03.904Z,14.50
2023-03-07T00:47:30.382Z,14.13
2023-03-07T00:49:56.899Z,12.77
2023-03-07T00:52:23.331Z,12.00
2023-03-07T00:54:49.829Z,13.53
2023-03-07T00:57:16.351Z,12.87
2023-03-07T00:59:42.902Z,12.77
2023-03-07T01:02:09.398Z,13.20
2023-03-07T01:04:35.868Z,13.80
2023-03-07T01:07:02.478Z,15.10
2023-03-07T01:09:28.949Z,13.87
2023-03-07T01:11:55.538Z,12.83
2023-03-07T01:14:22.332Z,12.83
2023-03-07T01:16:48.801Z,14.00
2023-03-07T01:19:15.374Z,13.33
2023-03-07T01:21:43.147Z,13.40
2023-03-07T01:24:12.057Z,13.97
2023-03-07T01:26:38.516Z,14.20
2023-03-07T01:29:06.205Z,13.67
2023-03-07T01:31:34.970Z,14.20
2023-03-07T01:34:02.341Z,13.87
2023-03-07T01:36:33.160Z,14.23
2023-03-07T01:39:07.808Z,13.77
2023-03-07T01:41:37.481Z,13.87
2023-03-07T01:44:12.217Z,13.10
2023-03-07T01:46:44.849Z,13.33
2023-03-07T01:49:12.180Z,14.13
2023-03-07T01:51:40.522Z,12.87
2023-03-07T01:54:09.207Z,14.00
2023-03-07T01:56:37.009Z,13.60
2023-03-07T01:59:04.084Z,14.77
2023-03-07T02:01:30.708Z,13.67
2023-03-07T02:04:10.790Z,13.37
2023-03-07T02:06:38.130Z,15.50
2023-03-07T02:09:07.316Z,12.77
2023-03-07T02:11:34.803Z,17.73
2023-03-07T02:14:01.383Z,13.97
2023-03-07T02:16:27.899Z,12.93
2023-03-07T02:18:54.406Z,17.13
2023-03-07T02:21:39.277Z,14.83
2023-03-07T02:24:08.644Z,16.60
2023-03-07T02:26:41.513Z,14.77
2023-03-07T02:29:08.025Z,13.53
2023-03-07T02:31:34.566Z,14.53
2023-03-07T02:34:01.814Z,17.93
2023-03-07T02:36:31.262Z,14.77
2023-03-07T02:39:06.911Z,14.90
2023-03-07T02:41:34.536Z,17.27
2023-03-07T02:44:07.375Z,18.13
2023-03-07T02:46:34.000Z,20.23
2023-03-07T02:49:00.530Z,17.33
2023-03-07T02:51:27.230Z,14.67
2023-03-07T02:53:54.124Z,16.47
2023-03-07T02:56:20.604Z,16.70
2023-03-07T02:58:47.084Z,22.03
2023-03-07T03:01:13.649Z,16.77
2023-03-07T03:03:40.107Z,18.87
2023-03-07T03:06:06.582Z,22.10
2023-03-07T03:08:33.036Z,26.10
2023-03-07T03:10:59.726Z,23.53
2023-03-07T03:13:27.586Z,28.33
2023-03-07T03:15:57.865Z,27.30
2023-03-07T03:18:24.875Z,28.30
2023-03-07T03:20:51.323Z,25.60
2023-03-07T03:23:17.848Z,24.70
2023-03-07T03:25:44.421Z,27.47
2023-03-07T03:28:13.403Z,27.70
2023-03-07T03:30:40.278Z,26.00
2023-03-07T03:33:06.784Z,29.47
2023-03-07T03:35:34.557Z,23.77
2023-03-07T03:38:01.530Z,25.53
2023-03-07T03:40:28.126Z,24.00
2023-03-07T03:42:54.892Z,26.83
2023-03-07T03:45:24.190Z,27.77
2023-03-07T03:47:51.095Z,26.17
2023-03-07T03:50:17.831Z,27.03
2023-03-07T03:52:45.215Z,28.43
2023-03-07T03:55:12.564Z,24.73
2023-03-07T03:57:39.223Z,27.07
2023-03-07T04:00:08.590Z,24.93
2023-03-07T04:02:38.899Z,28.03
2023-03-07T04:05:07.506Z,31.83
2023-03-07T04:07:33.989Z,23.93
2023-03-07T04:10:00.605Z,28.13
2023-03-07T04:12:27.367Z,29.53
2023-03-07T04:14:53.776Z,35.33
2023-03-07T04:17:20.198Z,23.43
2023-03-07T04:19:46.659Z,27.67
2023-03-07T04:22:13.311Z,25.80
2023-03-07T04:24:39.898Z,23.63
2023-03-07T04:27:07.500Z,31.87
2023-03-07T04:29:35.596Z,25.30
2023-03-07T04:32:11.059Z,28.53
2023-03-07T04:34:37.811Z,28.23
2023-03-07T04:37:04.309Z,32.90
2023-03-07T04:39:30.779Z,28.53
2023-03-07T04:41:57.377Z,30.93
2023-03-07T04:44:24.728Z,24.97
2023-03-07T04:46:51.206Z,30.30
2023-03-07T04:49:17.744Z,29.70
2023-03-07T04:51:44.302Z,29.07
2023-03-07T04:54:13.298Z,34.63
2023-03-07T04:56:40.556Z,27.70
2023-03-07T04:59:09.297Z,25.43
2023-03-07T05:01:35.879Z,26.67
2023-03-07T05:04:02.545Z,25.10
2023-03-07T05:06:29.195Z,28.53
2023-03-07T05:08:56.290Z,34.37
2023-03-07T05:11:22.729Z,25.07
2023-03-07T05:13:50.532Z,27.00
2023-03-07T05:16:19.629Z,26.53
2023-03-07T05:18:46.140Z,30.97
2023-03-07T05:21:12.830Z,25.37
2023-03-07T05:23:39.716Z,25.60
2023-03-07T05:26:07.614Z,36.70
2023-03-07T05:28:34.140Z,29.17
2023-03-07T05:31:00.625Z,25.27
2023-03-07T05:33:27.176Z,26.93
2023-03-07T05:35:55.522Z,26.17
2023-03-07T05:38:22.957Z,27.13
2023-03-07T05:40:49.392Z,27.87
2023-03-07T05:43:15.901Z,28.43
2023-03-07T05:45:42.350Z,28.97
2023-03-07T05:48:08.894Z,26.07
2023-03-07T05:50:37.383Z,24.70
2023-03-07T05:53:04.425Z,29.00
2023-03-07T05:55:31.037Z,25.23
2023-03-07T05:57:58.760Z,28.90
2023-03-07T06:00:25.566Z,32.77
2023-03-07T06:02:56.379Z,27.33
2023-03-07T06:05:25.265Z,28.53
2023-03-07T06:07:52.139Z,31.07
2023-03-07T06:10:18.781Z,36.27
2023-03-07T06:12:48.938Z,30.10
2023-03-07T06:15:15.384Z,29.70
2023-03-07T06:17:41.987Z,27.70
2023-03-07T06:20:09.089Z,27.50
2023-03-07T06:22:38.158Z,30.40
2023-03-07T06:25:05.485Z,32.23
2023-03-07T06:27:36.010Z,32.87
2023-03-07T06:30:04.145Z,26.67
2023-03-07T06:32:30.987Z,28.00
2023-03-07T06:34:58.153Z,35.40
2023-03-07T06:37:25.933Z,36.97
2023-03-07T06:39:53.777Z,31.17
2023-03-07T06:42:20.642Z,30.70
2023-03-07T06:44:47.510Z,31.33
2023-03-07T06:47:14.205Z,30.07
2023-03-07T06:49:41.714Z,28.07
2023-03-07T06:52:08.735Z,31.17
2023-03-07T06:54:35.299Z,30.40
2023-03-07T06:57:01.915Z,24.67
2023-03-07T06:59:28.369Z,31.20
2023-03-07T07:01:55.062Z,26.83
2023-03-07T07:04:22.261Z,30.47
2023-03-07T07:06:49.690Z,33.93
2023-03-07T07:09:16.573Z,30.63
2023-03-07T07:11:43.327Z,30.20
2023-03-07T07:14:12.229Z,33.17
2023-03-07T07:16:39.670Z,31.67
2023-03-07T07:19:06.995Z,33.47
2023-03-07T07:21:35.296Z,32.00
2023-03-07T07:24:01.920Z,30.30
2023-03-07T07:26:29.119Z,24.70
2023-03-07T07:28:57.669Z,31.87
2023-03-07T07:31:24.206Z,30.10
2023-03-07T07:33:50.702Z,40.40
2023-03-07T07:36:18.236Z,40.70
2023-03-07T07:38:44.776Z,42.23
2023-03-07T07:41:12.194Z,37.97
2023-03-07T07:43:38.826Z,42.70
2023-03-07T07:46:18.299Z,34.43
2023-03-07T07:48:46.750Z,31.20
2023-03-07T07:51:13.415Z,36.17
2023-03-07T07:53:40.527Z,31.03
2023-03-07T07:56:07.487Z,29.27
2023-03-07T07:58:34.064Z,33.07
2023-03-07T08:01:11.669Z,30.80
2023-03-07T08:03:38.228Z,28.93
2023-03-07T08:06:04.808Z,26.60
2023-03-07T08:08:31.215Z,30.27
2023-03-07T08:10:57.621Z,27.63
2023-03-07T08:13:24.317Z,32.27
2023-03-07T08:15:51.064Z,26.10
2023-03-07T08:18:18.262Z,29.97
2023-03-07T08:20:44.706Z,25.47
2023-03-07T08:23:11.140Z,25.93
2023-03-07T08:25:37.683Z,25.67
2023-03-07T08:28:05.397Z,26.10
2023-03-07T08:30:32.906Z,24.30
2023-03-07T08:32:59.990Z,26.93
2023-03-07T08:35:27.613Z,24.43
2023-03-07T08:37:55.258Z,24.27
2023-03-07T08:40:22.653Z,26.43
2023-03-07T08:42:49.068Z,22.73
2023-03-07T08:45:15.550Z,22.50
2023-03-07T08:47:42.098Z,23.90
2023-03-07T08:50:08.945Z,24.03
2023-03-07T08:52:35.359Z,24.47
2023-03-07T08:55:01.925Z,22.57
2023-03-07T08:57:28.344Z,23.17
2023-03-07T08:59:54.774Z,25.57
2023-03-07T09:02:21.259Z,20.67
2023-03-07T09:04:47.777Z,19.67
2023-03-07T09:07:14.305Z,19.23
2023-03-07T09:09:40.759Z,19.97
2023-03-07T09:12:07.400Z,21.97
2023-03-07T09:14:33.856Z,19.40
2023-03-07T09:17:00.339Z,19.37
2023-03-07T09:19:26.828Z,20.20
2023-03-07T09:21:53.272Z,21.53
2023-03-07T09:24:19.813Z,19.70
2023-03-07T09:26:46.289Z,21.43
2023-03-07T09:29:12.772Z,21.77
2023-03-07T09:31:40.930Z,29.13
2023-03-07T09:34:07.455Z,25.17
2023-03-07T09:36:33.963Z,24.57
2023-03-07T09:39:00.678Z,23.03
2023-03-07T09:41:45.781Z,23.23
2023-03-07T09:44:17.977Z,23.47
2023-03-07T09:47:21.371Z,22.10
2023-03-07T09:49:49.170Z,20.50
2023-03-07T09:52:25.781Z,23.17
2023-03-07T09:55:00.374Z,22.80
2023-03-07T09:57:34.541Z,20.57
2023-03-07T10:00:05.744Z,18.43
2023-03-07T10:02:49.958Z,21.77
2023-03-07T10:05:37.527Z,21.63
2023-03-07T10:08:05.320Z,22.03
2023-03-07T10:10:38.970Z,15.90
2023-03-07T10:13:08.467Z,12.50
2023-03-07T10:15:58.144Z,7.97
2023-03-07T10:18:35.630Z,7.43
2023-03-07T10:21:17.507Z,8.17
2023-03-07T10:23:43.990Z,6.40
2023-03-07T10:26:19.851Z,7.03
2023-03-07T10:28:46.894Z,7.43
2023-03-07T10:31:13.278Z,5.80
2023-03-07T10:33:40.533Z,6.90
2023-03-07T10:36:09.085Z,6.57
2023-03-07T10:38:42.047Z,8.60
2023-03-07T10:41:13.773Z,5.93
2023-03-07T10:43:41.994Z,6.77
2023-03-07T10:46:22.270Z,7.07
2023-03-07T10:48:52.717Z,6.60
2023-03-07T10:51:22.179Z,8.10
2023-03-07T10:53:49.930Z,7.40
2023-03-07T10:56:18.219Z,9.03
2023-03-07T10:59:03.575Z,7.47
2023-03-07T11:01:31.158Z,8.50
2023-03-07T11:04:01.878Z,6.70
2023-03-07T11:06:39.472Z,7.67
2023-03-07T11:09:15.840Z,12.03
2023-03-07T11:11:47.454Z,7.83
2023-03-07T11:14:15.685Z,6.30
2023-03-07T11:16:49.023Z,7.30
2023-03-07T11:19:34.323Z,9.70
2023-03-07T11:22:03.485Z,10.27
2023-03-07T11:24:31.930Z,8.33
2023-03-07T11:26:59.148Z,7.30
2023-03-07T11:29:28.187Z,9.43
2023-03-07T11:32:01.553Z,5.30
2023-03-07T11:34:37.790Z,5.00
2023-03-07T11:37:15.038Z,3.43
2023-03-07T11:39:48.833Z,4.60
2023-03-07T11:42:24.303Z,3.60
2023-03-07T11:44:56.984Z,3.87
2023-03-07T11:47:30.158Z,5.80
2023-03-07T11:49:56.608Z,6.67
2023-03-07T11:52:31.898Z,4.70
2023-03-07T11:54:58.470Z,4.73
2023-03-07T11:57:36.795Z,4.87
2023-03-07T12:00:11.607Z,5.30
2023-03-07T12:02:52.692Z,5.00
2023-03-07T12:05:38.057Z,6.87
2023-03-07T12:08:24.568Z,5.13
2023-03-07T12:10:58.729Z,4.60
2023-03-07T12:13:34.332Z,3.50
2023-03-07T12:16:24.020Z,6.77
2023-03-07T12:18:53.497Z,8.40
2023-03-07T12:21:38.791Z,5.50
2023-03-07T12:24:24.921Z,6.03
2023-03-07T12:27:02.530Z,5.37
2023-03-07T12:29:35.765Z,5.97
2023-03-07T12:32:11.112Z,10.07
2023-03-07T12:34:39.821Z,6.50
2023-03-07T12:37:08.251Z,9.00
2023-03-07T12:39:46.644Z,5.50
2023-03-07T12:42:22.164Z,7.20
2023-03-07T12:44:59.559Z,8.20
2023-03-07T12:47:35.089Z,10.17
2023-03-07T12:50:20.233Z,10.60
2023-03-07T12:53:10.100Z,10.53
2023-03-07T12:55:36.531Z,9.10
2023-03-07T12:58:19.734Z,8.20
2023-03-07T13:00:58.269Z,12.93
2023-03-07T13:03:34.941Z,15.27
2023-03-07T13:06:01.661Z,9.40
2023-03-07T13:08:28.154Z,9.70
2023-03-07T13:10:55.737Z,8.80
2023-03-07T13:13:40.717Z,10.87
2023-03-07T13:16:07.513Z,8.80
2023-03-07T13:18:34.125Z,9.13
2023-03-07T13:21:11.998Z,11.30
2023-03-07T13:23:38.650Z,6.43
2023-03-07T13:26:06.500Z,7.10
2023-03-07T13:28:34.791Z,8.67
2023-03-07T13:31:10.478Z,6.50
2023-03-07T13:33:36.952Z,12.57
2023-03-07T13:36:03.997Z,9.70
2023-03-07T13:38:32.132Z,7.43
2023-03-07T13:41:00.356Z,10.10
2023-03-07T13:43:32.318Z,7.70
2023-03-07T13:45:59.539Z,6.80
2023-03-07T13:48:28.913Z,9.87
2023-03-07T13:50:55.329Z,10.40
2023-03-07T13:53:24.561Z,7.93
2023-03-07T13:56:09.535Z,10.47
2023-03-07T13:58:44.607Z,7.27
2023-03-07T14:01:17.193Z,11.00
2023-03-07T14:03:54.406Z,6.50
2023-03-07T14:06:40.213Z,6.80
2023-03-07T14:09:08.543Z,12.57
2023-03-07T14:11:34.948Z,9.87
2023-03-07T14:14:08.683Z,8.40
2023-03-07T14:16:35.179Z,14.93
2023-03-07T14:19:06.935Z,9.90
2023-03-07T14:21:39.393Z,10.00
2023-03-07T14:24:25.504Z,11.67
2023-03-07T14:26:55.304Z,8.90
2023-03-07T14:29:23.013Z,9.87
2023-03-07T14:31:53.193Z,9.77
2023-03-07T14:34:33.086Z,10.70
2023-03-07T14:37:01.067Z,18.73
2023-03-07T14:39:38.170Z,11.57
2023-03-07T14:42:10.096Z,9.10
2023-03-07T14:44:43.463Z,12.17
2023-03-07T14:47:19.067Z,13.90
2023-03-07T14:49:48.637Z,8.57
2023-03-07T14:52:28.264Z,14.23
2023-03-07T14:54:59.495Z,15.83
2023-03-07T14:57:32.002Z,15.50
2023-03-07T15:00:07.780Z,15.70
2023-03-07T15:02:34.240Z,13.20
2023-03-07T15:05:00.762Z,9.57
2023-03-07T15:07:27.735Z,14.90
2023-03-07T15:09:54.199Z,19.37
2023-03-07T15:12:25.258Z,21.87
2023-03-07T15:14:54.518Z,26.27
2023-03-07T15:17:24.069Z,17.07
2023-03-07T15:19:54.141Z,21.07
2023-03-07T15:22:28.837Z,17.17
2023-03-07T15:24:55.563Z,26.20
2023-03-07T15:27:24.760Z,30.20
2023-03-07T15:29:51.644Z,17.80
2023-03-07T15:32:32.794Z,31.70
2023-03-07T15:35:00.842Z,21.50
2023-03-07T15:37:28.496Z,31.00
2023-03-07T15:40:01.178Z,16.37
2023-03-07T15:42:28.297Z,13.40
2023-03-07T15:44:57.674Z,17.67
2023-03-07T15:47:24.765Z,21.07
2023-03-07T15:49:52.940Z,18.63
2023-03-07T15:52:21.539Z,18.17
2023-03-07T15:54:51.558Z,9.67
2023-03-07T15:57:19.689Z,13.73
2023-03-07T15:59:56.815Z,15.10
2023-03-07T16:02:32.422Z,25.13
2023-03-07T16:04:59.654Z,21.83
2023-03-07T16:07:26.132Z,9.97
2023-03-07T16:09:52.610Z,36.57
2023-03-07T16:12:21.064Z,17.70
2023-03-07T16:14:47.977Z,22.17
2023-03-07T16:17:33.252Z,18.70
2023-03-07T16:19:59.714Z,32.73
2023-03-07T16:22:26.230Z,12.93
2023-03-07T16:24:52.654Z,18.90
2023-03-07T16:27:20.104Z,16.10
2023-03-07T16:29:47.077Z,21.47
2023-03-07T16:32:14.994Z,15.90
2023-03-07T16:34:43.369Z,21.10
2023-03-07T16:37:10.884Z,31.30
2023-03-07T16:39:37.862Z,25.80
2023-03-07T16:42:04.684Z,23.17
2023-03-07T16:44:31.203Z,31.43
2023-03-07T16:47:01.655Z,27.10
2023-03-07T16:49:28.146Z,34.50
2023-03-07T16:52:05.243Z,35.43
2023-03-07T16:54:32.804Z,20.17
2023-03-07T16:57:00.607Z,17.30
2023-03-07T16:59:29.149Z,41.63
2023-03-07T17:01:55.647Z,20.40
2023-03-07T17:04:22.085Z,36.80
2023-03-07T17:06:57.661Z,25.77
2023-03-07T17:09:27.454Z,26.17
2023-03-07T17:11:53.927Z,28.43
2023-03-07T17:14:20.467Z,25.70
2023-03-07T17:16:48.612Z,30.33
2023-03-07T17:19:28.422Z,32.63
2023-03-07T17:21:55.593Z,35.77
2023-03-07T17:24:22.036Z,52.70
2023-03-07T17:26:48.937Z,48.00
2023-03-07T17:29:35.769Z,35.77
2023-03-07T17:32:02.453Z,30.50
2023-03-07T17:34:30.031Z,39.17
2023-03-07T17:36:57.557Z,41.90
2023-03-07T17:39:24.113Z,34.43
2023-03-07T17:41:50.649Z,39.00
2023-03-07T17:44:18.159Z,23.40
2023-03-07T17:46:44.619Z,23.47
2023-03-07T17:49:11.061Z,24.83
2023-03-07T17:51:37.507Z,25.70
2023-03-07T17:54:05.908Z,30.17
2023-03-07T17:56:32.375Z,45.90
2023-03-07T17:59:01.405Z,48.83
2023-03-07T18:01:29.092Z,48.07
2023-03-07T18:03:56.169Z,31.97
2023-03-07T18:06:23.072Z,65.40
2023-03-07T18:08:49.684Z,28.23
2023-03-07T18:11:16.138Z,48.20
2023-03-07T18:13:42.619Z,52.57
2023-03-07T18:16:09.794Z,32.07
2023-03-07T18:18:38.253Z,51.27
2023-03-07T18:21:06.537Z,32.17
2023-03-07T18:23:34.271Z,40.17
2023-03-07T18:26:01.834Z,35.73
2023-03-07T18:28:28.637Z,53.00
2023-03-07T18:31:03.474Z,55.07
2023-03-07T18:33:30.400Z,36.60
2023-03-07T18:35:57.782Z,45.93
2023-03-07T18:38:24.675Z,44.40
2023-03-07T18:40:53.676Z,54.60
2023-03-07T18:43:20.428Z,54.73
2023-03-07T18:45:48.116Z,54.23
2023-03-07T18:48:14.546Z,47.83
2023-03-07T18:50:40.954Z,38.30
2023-03-07T18:53:07.613Z,37.10
2023-03-07T18:55:37.284Z,48.63
2023-03-07T18:58:03.810Z,63.37
2023-03-07T19:00:30.312Z,75.23
2023-03-07T19:02:56.804Z,41.63
2023-03-07T19:05:23.348Z,45.03
2023-03-07T19:07:49.805Z,34.17
2023-03-07T19:10:16.395Z,38.80
2023-03-07T19:12:42.844Z,32.70
2023-03-07T19:15:09.504Z,35.17
2023-03-07T19:17:40.339Z,26.67
2023-03-07T19:20:07.167Z,46.03
2023-03-07T19:22:33.782Z,27.23
2023-03-07T19:25:00.256Z,29.83
2023-03-07T19:27:27.947Z,39.77
2023-03-07T19:29:54.759Z,47.73
2023-03-07T19:32:21.371Z,47.37
2023-03-07T19:34:50.939Z,51.47
2023-03-07T19:37:17.407Z,54.97
2023-03-07T19:39:43.851Z,53.90
2023-03-07T19:42:10.656Z,22.07
2023-03-07T19:44:37.216Z,37.57
2023-03-07T19:47:03.777Z,22.60
2023-03-07T19:49:30.224Z,52.83
2023-03-07T19:51:56.696Z,45.80
2023-03-07T19:54:23.220Z,56.23
2023-03-07T19:56:49.631Z,39.07
2023-03-07T19:59:16.153Z,41.20
2023-03-07T20:01:42.736Z,48.63
2023-03-07T20:04:10.870Z,57.73
2023-03-07T20:06:37.310Z,43.00
2023-03-07T20:09:03.905Z,27.23
2023-03-07T20:11:31.981Z,40.90
2023-03-07T20:13:59.658Z,26.73
2023-03-07T20:16:28.984Z,39.60
2023-03-07T20:18:56.427Z,36.73
2023-03-07T20:21:25.710Z,49.07
2023-03-07T20:23:54.331Z,54.43
2023-03-07T20:26:25.196Z,39.40
2023-03-07T20:28:52.564Z,44.93
2023-03-07T20:31:20.151Z,47.37
2023-03-07T20:33:47.106Z,45.30
2023-03-07T20:36:21.444Z,37.63
2023-03-07T20:38:49.999Z,44.10
2023-03-07T20:41:17.134Z,37.87
2023-03-07T20:43:43.600Z,28.00
2023-03-07T20:46:12.898Z,35.83
2023-03-07T20:48:39.926Z,41.80
2023-03-07T20:51:18.212Z,45.93
2023-03-07T20:53:45.472Z,43.20
2023-03-07T20:56:11.967Z,35.07
2023-03-07T20:58:38.380Z,36.77
2023-03-07T21:01:04.982Z,40.17
2023-03-07T21:03:31.443Z,31.07
2023-03-07T21:06:01.942Z,26.47
2023-03-07T21:08:32.296Z,24.67
2023-03-07T21:11:00.010Z,40.17
2023-03-07T21:13:26.826Z,38.03
2023-03-07T21:15:56.660Z,33.17
2023-03-07T21:18:23.426Z,24.10
2023-03-07T21:20:50.153Z,26.17
2023-03-07T21:23:17.140Z,27.20
2023-03-07T21:25:45.065Z,26.30
2023-03-07T21:28:12.028Z,29.73
2023-03-07T21:30:38.562Z,19.30
2023-03-07T21:33:04.973Z,38.73
2023-03-07T21:35:35.886Z,46.93
2023-03-07T21:38:02.359Z,38.73
2023-03-07T21:40:28.828Z,37.30
2023-03-07T21:42:55.268Z,24.10
2023-03-07T21:45:23.426Z,22.53
2023-03-07T21:47:54.097Z,41.07
2023-03-07T21:50:20.640Z,18.87
2023-03-07T21:52:47.203Z,24.93
2023-03-07T21:55:13.748Z,17.90
2023-03-07T21:57:40.191Z,25.13
2023-03-07T22:00:08.301Z,32.53
2023-03-07T22:02:37.750Z,19.43
2023-03-07T22:05:04.910Z,23.20
2023-03-07T22:07:31.771Z,24.93
2023-03-07T22:09:58.228Z,21.53
2023-03-07T22:12:24.604Z,19.63
2023-03-07T22:14:51.112Z,15.50
2023-03-07T22:17:17.613Z,22.63
2023-03-07T22:19:44.086Z,17.33
2023-03-07T22:22:10.592Z,15.77
2023-03-07T22:24:37.045Z,17.00
2023-03-07T22:27:03.499Z,31.43
2023-03-07T22:29:29.963Z,14.57
2023-03-07T22:31:56.450Z,16.17
2023-03-07T22:34:22.883Z,21.37
2023-03-07T22:36:54.430Z,22.90
2023-03-07T22:39:20.907Z,25.07
2023-03-07T22:41:47.441Z,29.73
2023-03-07T22:44:15.308Z,25.17
2023-03-07T22:46:41.771Z,21.67
2023-03-07T22:49:09.927Z,20.63
2023-03-07T22:51:37.433Z,18.00
2023-03-07T22:54:04.372Z,26.87
2023-03-07T22:56:31.521Z,16.43
2023-03-07T22:58:58.388Z,25.43
2023-03-07T23:01:26.068Z,27.07
2023-03-07T23:03:53.403Z,20.63
2023-03-07T23:06:20.413Z,18.00
2023-03-07T23:08:47.836Z,20.70
2023-03-07T23:11:14.862Z,21.17
2023-03-07T23:13:44.146Z,20.43
2023-03-07T23:16:12.033Z,22.97
2023-03-07T23:18:39.075Z,22.37
2023-03-07T23:21:06.496Z,28.73
2023-03-07T23:23:32.982Z,19.70
2023-03-07T23:25:59.603Z,32.87
2023-03-07T23:28:26.132Z,25.37
2023-03-07T23:30:52.853Z,24.80
2023-03-07T23:33:19.560Z,16.13
2023-03-07T23:35:46.091Z,20.50
2023-03-07T23:38:13.083Z,25.77
2023-03-07T23:40:39.692Z,20.97
2023-03-07T23:43:06.609Z,29.27
2023-03-07T23:45:33.244Z,15.63
2023-03-07T23:47:59.699Z,28.50
2023-03-07T23:50:26.179Z,30.03
2023-03-07T23:52:52.573Z,34.07
2023-03-07T23:55:19.048Z,36.93
2023-03-07T23:57:46.096Z,23.93
